aviador You're here:

KPOB Decoded Metar

FAYETTEVILLE in NC, USA
Report Time2018-01-19 18:56:00
UTC Time2018-01-19 19:02:40
Flight Rules vfr VFR
WindCalm
Visibility9999 m
Phenomena:N/A
Clouds:N/A
Expected CloudBase > 7,600 ft AGL from Temp-Dew spread
CeilingNone
Temp12°C (ISA -3)
Dew Point-7°C (26% RH)
AAT9.2°C
QNH1022 hPa
Density Alt-338 ft
Elevation217 ft
Report Wrong Elevation
Raw Report
METAR KPOB 191856Z AUTO 00000KT 10SM CLR 12/M07 A3018 RMK AO2 SLP224
T01201074 $=

Extra information for KPOB:More info

Metar Taf Metar & Taf Last 4 Metars F.Rules Stats Wind Profile Meteogram Temp Stats Airport Information Weather charts Add Link Nearby VenuesMetar ALERT Operation Metar Decoded Social comments

AIRNAV info for KPOB